createdAt,value
2022-09-26T00:00:21.749Z,1003.29
2022-09-26T00:01:21.777Z,1003.29
2022-09-26T00:02:21.782Z,1003.29
2022-09-26T00:03:21.721Z,1003.28
2022-09-26T00:04:23.635Z,1003.28
2022-09-26T00:05:21.699Z,1003.25
2022-09-26T00:06:21.699Z,1003.27
2022-09-26T00:07:21.676Z,1003.22
2022-09-26T00:08:21.666Z,1003.21
2022-09-26T00:09:21.658Z,1003.22
2022-09-26T00:10:21.649Z,1003.22
2022-09-26T00:11:21.645Z,1003.21
2022-09-26T00:12:21.619Z,1003.21
2022-09-26T00:13:21.630Z,1003.21
2022-09-26T00:14:21.600Z,1003.21
2022-09-26T00:15:21.592Z,1003.19
2022-09-26T00:16:21.626Z,1003.18
2022-09-26T00:17:21.569Z,1003.16
2022-09-26T00:18:21.554Z,1003.21
2022-09-26T00:19:21.546Z,1003.14
2022-09-26T00:20:21.534Z,1003.10
2022-09-26T00:21:21.575Z,1003.12
2022-09-26T00:22:21.510Z,1003.10
2022-09-26T00:23:21.501Z,1003.08
2022-09-26T00:24:21.500Z,1003.11
2022-09-26T00:25:21.480Z,1003.09
2022-09-26T00:26:21.480Z,1003.07
2022-09-26T00:27:21.460Z,1003.07
2022-09-26T00:28:21.446Z,1003.10
2022-09-26T00:29:21.459Z,1003.06
2022-09-26T00:30:21.504Z,1003.09
2022-09-26T00:31:21.587Z,1003.07
2022-09-26T00:32:21.404Z,1003.10
2022-09-26T00:33:21.394Z,1003.10
2022-09-26T00:34:21.382Z,1003.09
2022-09-26T00:35:21.372Z,1003.09
2022-09-26T00:36:29.672Z,1003.11
2022-09-26T00:37:22.350Z,1003.11
2022-09-26T00:38:21.347Z,1003.11
2022-09-26T00:39:21.329Z,1003.09
2022-09-26T00:40:21.504Z,1003.10
2022-09-26T00:41:21.330Z,1003.10
2022-09-26T00:42:21.295Z,1003.04
2022-09-26T00:43:21.285Z,1003.05
2022-09-26T00:44:21.274Z,1003.04
2022-09-26T00:45:21.279Z,1003.03
2022-09-26T00:46:21.285Z,1003.05
2022-09-26T00:47:21.258Z,1003.05
2022-09-26T00:48:21.230Z,1003.08
2022-09-26T00:49:21.222Z,1003.05
2022-09-26T00:50:21.208Z,1003.02
2022-09-26T00:51:21.201Z,1002.98
2022-09-26T00:52:21.199Z,1003.02
2022-09-26T00:53:21.176Z,1003.04
2022-09-26T00:54:21.164Z,1003.00
2022-09-26T00:55:21.156Z,1002.99
2022-09-26T00:56:21.143Z,1003.02
2022-09-26T00:57:21.146Z,1003.00
2022-09-26T00:58:21.125Z,1003.01
2022-09-26T00:59:21.112Z,1003.00
2022-09-26T01:00:21.100Z,1003.02
2022-09-26T01:01:21.210Z,1003.00
2022-09-26T01:02:21.301Z,1003.02
2022-09-26T01:03:21.068Z,1002.96
2022-09-26T01:04:21.058Z,1002.97
2022-09-26T01:05:21.047Z,1002.93
2022-09-26T01:06:21.036Z,1002.90
2022-09-26T01:07:21.036Z,1002.90
2022-09-26T01:08:21.018Z,1002.92
2022-09-26T01:09:21.007Z,1002.94
2022-09-26T01:10:20.994Z,1002.92
2022-09-26T01:11:20.983Z,1002.89
2022-09-26T01:12:20.983Z,1002.86
2022-09-26T01:13:20.961Z,1002.85
2022-09-26T01:14:20.954Z,1002.86
2022-09-26T01:15:20.949Z,1002.82
2022-09-26T01:16:21.004Z,1002.80
2022-09-26T01:17:20.947Z,1002.80
2022-09-26T01:18:20.905Z,1002.77
2022-09-26T01:19:20.895Z,1002.78
2022-09-26T01:20:20.898Z,1002.77
2022-09-26T01:21:20.883Z,1002.77
2022-09-26T01:22:20.884Z,1002.78
2022-09-26T01:23:20.853Z,1002.73
2022-09-26T01:24:20.874Z,1002.72
2022-09-26T01:25:20.829Z,1002.75
2022-09-26T01:26:20.884Z,1002.76
2022-09-26T01:27:20.811Z,1002.76
2022-09-26T01:28:20.819Z,1002.77
2022-09-26T01:29:20.811Z,1002.73
2022-09-26T01:30:20.776Z,1002.68
2022-09-26T01:31:20.858Z,1002.67
2022-09-26T01:32:20.764Z,1002.66
2022-09-26T01:33:20.763Z,1002.61
2022-09-26T01:34:20.732Z,1002.65
2022-09-26T01:35:20.738Z,1002.63
2022-09-26T01:36:20.739Z,1002.62
2022-09-26T01:37:20.701Z,1002.66
2022-09-26T01:38:20.711Z,1002.65
2022-09-26T01:39:20.678Z,1002.60
2022-09-26T01:40:20.701Z,1002.61
2022-09-26T01:41:20.669Z,1002.58
2022-09-26T01:42:20.646Z,1002.59
2022-09-26T01:43:20.644Z,1002.56
2022-09-26T01:44:20.648Z,1002.54
2022-09-26T01:45:20.615Z,1002.55
2022-09-26T01:46:20.662Z,1002.52
2022-09-26T01:47:20.625Z,1002.53
2022-09-26T01:48:20.588Z,1002.49
2022-09-26T01:49:20.591Z,1002.53
2022-09-26T01:50:20.584Z,1002.57
2022-09-26T01:51:20.566Z,1002.54
2022-09-26T01:52:20.541Z,1002.57
2022-09-26T01:53:20.530Z,1002.53
2022-09-26T01:54:20.514Z,1002.55
2022-09-26T01:55:20.506Z,1002.55
2022-09-26T01:56:20.535Z,1002.54
2022-09-26T01:57:20.486Z,1002.51
2022-09-26T01:58:20.483Z,1002.55
2022-09-26T01:59:20.467Z,1002.55
2022-09-26T02:00:20.453Z,1002.58
2022-09-26T02:01:20.482Z,1002.54
2022-09-26T02:02:20.488Z,1002.52
2022-09-26T02:03:20.434Z,1002.50
2022-09-26T02:04:20.408Z,1002.52
2022-09-26T02:05:20.457Z,1002.50
2022-09-26T02:06:20.396Z,1002.50
2022-09-26T02:07:20.376Z,1002.49
2022-09-26T02:08:20.362Z,1002.44
2022-09-26T02:09:20.354Z,1002.44
2022-09-26T02:10:20.344Z,1002.43
2022-09-26T02:11:20.346Z,1002.40
2022-09-26T02:12:20.320Z,1002.39
2022-09-26T02:13:20.312Z,1002.35
2022-09-26T02:14:20.301Z,1002.33
2022-09-26T02:15:20.295Z,1002.33
2022-09-26T02:16:20.339Z,1002.29
2022-09-26T02:17:20.267Z,1002.32
2022-09-26T02:18:20.258Z,1002.31
2022-09-26T02:19:20.251Z,1002.28
2022-09-26T02:20:20.237Z,1002.26
2022-09-26T02:21:20.254Z,1002.28
2022-09-26T02:22:20.213Z,1002.24
2022-09-26T02:23:20.206Z,1002.31
2022-09-26T02:24:20.191Z,1002.24
2022-09-26T02:25:20.182Z,1002.25
2022-09-26T02:26:20.179Z,1002.26
2022-09-26T02:27:20.160Z,1002.23
2022-09-26T02:28:20.146Z,1002.24
2022-09-26T02:29:20.155Z,1002.23
2022-09-26T02:30:20.125Z,1002.21
2022-09-26T02:31:20.185Z,1002.23
2022-09-26T02:32:20.194Z,1002.23
2022-09-26T02:33:20.092Z,1002.21
2022-09-26T02:34:20.083Z,1002.15
2022-09-26T02:35:20.072Z,1002.11
2022-09-26T02:36:20.069Z,1002.10
2022-09-26T02:37:20.069Z,1002.07
2022-09-26T02:38:20.039Z,1002.03
2022-09-26T02:39:20.029Z,1002.02
2022-09-26T02:40:20.061Z,1002.06
2022-09-26T02:41:20.023Z,1002.08
2022-09-26T02:42:19.994Z,1002.02
2022-09-26T02:43:19.986Z,1002.04
2022-09-26T02:44:19.975Z,1002.05
2022-09-26T02:45:19.963Z,1002.02
2022-09-26T02:46:20.010Z,1002.06
2022-09-26T02:47:19.944Z,1002.04
2022-09-26T02:48:19.929Z,1002.01
2022-09-26T02:49:19.921Z,1001.98
2022-09-26T02:50:19.908Z,1002.01
2022-09-26T02:51:19.913Z,1001.99
2022-09-26T02:52:19.890Z,1001.99
2022-09-26T02:53:19.898Z,1001.97
2022-09-26T02:54:19.865Z,1001.94
2022-09-26T02:55:19.859Z,1001.90
2022-09-26T02:56:19.855Z,1001.92
2022-09-26T02:57:19.833Z,1001.94
2022-09-26T02:58:19.823Z,1001.90
2022-09-26T02:59:19.848Z,1001.91
2022-09-26T03:00:19.804Z,1001.89
2022-09-26T03:01:20.016Z,1001.90
2022-09-26T03:02:19.779Z,1001.92
2022-09-26T03:03:19.771Z,1001.86
2022-09-26T03:04:19.808Z,1001.90
2022-09-26T03:05:19.752Z,1001.88
2022-09-26T03:06:19.745Z,1001.82
2022-09-26T03:07:19.727Z,1001.84
2022-09-26T03:08:19.713Z,1001.83
2022-09-26T03:09:19.724Z,1001.86
2022-09-26T03:10:19.693Z,1001.82
2022-09-26T03:11:19.693Z,1001.82
2022-09-26T03:12:19.670Z,1001.84
2022-09-26T03:13:19.661Z,1001.84
2022-09-26T03:14:19.651Z,1001.86
2022-09-26T03:15:19.642Z,1001.87
2022-09-26T03:16:19.740Z,1001.79
2022-09-26T03:17:19.618Z,1001.82
2022-09-26T03:18:19.612Z,1001.77
2022-09-26T03:19:19.596Z,1001.79
2022-09-26T03:20:19.593Z,1001.79
2022-09-26T03:21:19.575Z,1001.72
2022-09-26T03:22:19.573Z,1001.78
2022-09-26T03:23:19.553Z,1001.79
2022-09-26T03:24:19.541Z,1001.77
2022-09-26T03:25:19.548Z,1001.78
2022-09-26T03:26:19.530Z,1001.80
2022-09-26T03:27:19.513Z,1001.81
2022-09-26T03:28:19.498Z,1001.80
2022-09-26T03:29:19.487Z,1001.83
2022-09-26T03:30:19.487Z,1001.79
2022-09-26T03:31:19.536Z,1001.83
2022-09-26T03:32:19.453Z,1001.82
2022-09-26T03:33:19.448Z,1001.80
2022-09-26T03:34:19.431Z,1001.80
2022-09-26T03:35:19.422Z,1001.79
2022-09-26T03:36:19.422Z,1001.79
2022-09-26T03:37:19.402Z,1001.79
2022-09-26T03:38:19.389Z,1001.78
2022-09-26T03:39:19.381Z,1001.78
2022-09-26T03:40:19.450Z,1001.77
2022-09-26T03:41:19.410Z,1001.73
2022-09-26T03:42:19.351Z,1001.73
2022-09-26T03:43:19.336Z,1001.73
2022-09-26T03:44:19.325Z,1001.74
2022-09-26T03:45:19.314Z,1001.63
2022-09-26T03:46:19.388Z,1001.64
2022-09-26T03:47:19.302Z,1001.66
2022-09-26T03:48:19.281Z,1001.57
2022-09-26T03:49:19.271Z,1001.57
2022-09-26T03:50:19.261Z,1001.54
2022-09-26T03:51:19.250Z,1001.57
2022-09-26T03:52:19.255Z,1001.60
2022-09-26T03:53:19.229Z,1001.58
2022-09-26T03:54:19.219Z,1001.59
2022-09-26T03:55:19.205Z,1001.58
2022-09-26T03:56:19.195Z,1001.60
2022-09-26T03:57:19.211Z,1001.57
2022-09-26T03:58:19.174Z,1001.56
2022-09-26T03:59:19.160Z,1001.57
2022-09-26T04:00:19.153Z,1001.56
2022-09-26T04:01:19.246Z,1001.56
2022-09-26T04:02:19.205Z,1001.56
2022-09-26T04:03:19.119Z,1001.56
2022-09-26T04:04:19.110Z,1001.52
2022-09-26T04:05:19.095Z,1001.54
2022-09-26T04:06:19.087Z,1001.50
2022-09-26T04:07:19.089Z,1001.50
2022-09-26T04:08:19.082Z,1001.47
2022-09-26T04:09:19.343Z,1001.48
2022-09-26T04:10:19.045Z,1001.49
2022-09-26T04:11:19.033Z,1001.50
2022-09-26T04:12:19.033Z,1001.50
2022-09-26T04:13:40.033Z,1001.45
2022-09-26T04:14:20.039Z,1001.44
2022-09-26T04:15:18.988Z,1001.38
2022-09-26T04:16:19.057Z,1001.40
2022-09-26T04:17:18.980Z,1001.39
2022-09-26T04:18:18.958Z,1001.37
2022-09-26T04:19:18.946Z,1001.36
2022-09-26T04:20:18.936Z,1001.36
2022-09-26T04:21:18.925Z,1001.35
2022-09-26T04:22:18.923Z,1001.37
2022-09-26T04:23:18.902Z,1001.38
2022-09-26T04:24:18.893Z,1001.36
2022-09-26T04:25:18.880Z,1001.35
2022-09-26T04:26:23.295Z,1001.34
2022-09-26T04:27:18.870Z,1001.36
2022-09-26T04:28:18.848Z,1001.39
2022-09-26T04:29:18.854Z,1001.35
2022-09-26T04:30:18.830Z,1001.34
2022-09-26T04:31:18.882Z,1001.38
2022-09-26T04:32:18.814Z,1001.37
2022-09-26T04:33:18.793Z,1001.34
2022-09-26T04:34:22.340Z,1001.33
2022-09-26T04:35:19.770Z,1001.35
2022-09-26T04:36:18.764Z,1001.35
2022-09-26T04:37:18.760Z,1001.37
2022-09-26T04:38:18.754Z,1001.34
2022-09-26T04:39:18.727Z,1001.39
2022-09-26T04:40:18.750Z,1001.37
2022-09-26T04:41:18.706Z,1001.38
2022-09-26T04:42:18.713Z,1001.39
2022-09-26T04:43:18.688Z,1001.39
2022-09-26T04:44:18.675Z,1001.40
2022-09-26T04:45:18.766Z,1001.36
2022-09-26T04:46:21.839Z,1001.39
2022-09-26T04:47:19.648Z,1001.35
2022-09-26T04:48:18.632Z,1001.38
2022-09-26T04:49:18.620Z,1001.37
2022-09-26T04:50:18.610Z,1001.35
2022-09-26T04:51:18.597Z,1001.35
2022-09-26T04:52:18.602Z,1001.34
2022-09-26T04:53:18.575Z,1001.32
2022-09-26T04:54:18.567Z,1001.27
2022-09-26T04:55:18.588Z,1001.29
2022-09-26T04:56:18.544Z,1001.27
2022-09-26T04:57:19.874Z,1001.31
2022-09-26T04:58:18.526Z,1001.28
2022-09-26T04:59:18.513Z,1001.31
2022-09-26T05:00:18.501Z,1001.32
2022-09-26T05:01:18.619Z,1001.31
2022-09-26T05:02:18.552Z,1001.34
2022-09-26T05:03:18.466Z,1001.28
2022-09-26T05:04:18.462Z,1001.30
2022-09-26T05:05:18.445Z,1001.30
2022-09-26T05:06:18.458Z,1001.30
2022-09-26T05:07:18.426Z,1001.24
2022-09-26T05:08:18.445Z,1001.28
2022-09-26T05:09:18.405Z,1001.28
2022-09-26T05:10:18.393Z,1001.21
2022-09-26T05:11:18.399Z,1001.26
2022-09-26T05:12:18.370Z,1001.19
2022-09-26T05:13:18.357Z,1001.25
2022-09-26T05:14:18.370Z,1001.22
2022-09-26T05:15:18.338Z,1001.19
2022-09-26T05:16:18.415Z,1001.18
2022-09-26T05:17:33.262Z,1001.17
2022-09-26T05:18:18.306Z,1001.21
2022-09-26T05:19:18.292Z,1001.19
2022-09-26T05:20:18.284Z,1001.19
2022-09-26T05:21:18.281Z,1001.20
2022-09-26T05:22:18.329Z,1001.15
2022-09-26T05:23:18.250Z,1001.21
2022-09-26T05:24:18.256Z,1001.17
2022-09-26T05:25:18.229Z,1001.17
2022-09-26T05:26:18.229Z,1001.21
2022-09-26T05:27:18.213Z,1001.19
2022-09-26T05:28:18.200Z,1001.18
2022-09-26T05:29:18.270Z,1001.18
2022-09-26T05:30:18.179Z,1001.16
2022-09-26T05:31:18.261Z,1001.21
2022-09-26T05:32:18.153Z,1001.18
2022-09-26T05:33:18.159Z,1001.16
2022-09-26T05:34:20.016Z,1001.18
2022-09-26T05:35:18.124Z,1001.15
2022-09-26T05:36:18.129Z,1001.15
2022-09-26T05:37:18.100Z,1001.19
2022-09-26T05:38:18.090Z,1001.18
2022-09-26T05:39:18.076Z,1001.21
2022-09-26T05:40:18.156Z,1001.19
2022-09-26T05:41:18.067Z,1001.17
2022-09-26T05:42:18.046Z,1001.17
2022-09-26T05:43:18.034Z,1001.21
2022-09-26T05:44:18.023Z,1001.22
2022-09-26T05:45:18.013Z,1001.18
2022-09-26T05:46:18.044Z,1001.21
2022-09-26T05:47:17.988Z,1001.19
2022-09-26T05:48:17.979Z,1001.18
2022-09-26T05:49:18.014Z,1001.16
2022-09-26T05:50:17.961Z,1001.17
2022-09-26T05:51:17.976Z,1001.16
2022-09-26T05:52:17.940Z,1001.13
2022-09-26T05:53:17.929Z,1001.09
2022-09-26T05:54:17.926Z,1001.05
2022-09-26T05:55:17.902Z,1001.04
2022-09-26T05:56:19.245Z,1001.09
2022-09-26T05:57:17.880Z,1001.10
2022-09-26T05:58:17.875Z,1001.10
2022-09-26T05:59:17.860Z,1001.07
2022-09-26T06:00:17.850Z,1001.12
2022-09-26T06:01:17.995Z,1001.09
2022-09-26T06:02:20.905Z,1001.06
2022-09-26T06:03:17.828Z,1001.13
2022-09-26T06:04:17.807Z,1001.13
2022-09-26T06:05:17.813Z,1001.08
2022-09-26T06:06:17.794Z,1001.05
2022-09-26T06:07:32.758Z,1001.06
2022-09-26T06:08:17.761Z,1001.13
2022-09-26T06:09:17.750Z,1001.14
2022-09-26T06:10:17.757Z,1001.09
2022-09-26T06:11:17.736Z,1001.11
2022-09-26T06:12:17.727Z,1001.13
2022-09-26T06:13:17.706Z,1001.15
2022-09-26T06:14:17.698Z,1001.13
2022-09-26T06:15:17.690Z,1001.14
2022-09-26T06:16:17.700Z,1001.06
2022-09-26T06:17:17.661Z,1001.05
2022-09-26T06:18:20.268Z,1001.05
2022-09-26T06:19:22.176Z,1001.06
2022-09-26T06:20:18.631Z,1001.06
2022-09-26T06:21:17.740Z,1001.08
2022-09-26T06:22:17.610Z,1001.06
2022-09-26T06:23:17.598Z,1001.04
2022-09-26T06:24:17.588Z,1001.04
2022-09-26T06:25:17.588Z,1000.98
2022-09-26T06:26:17.579Z,1001.02
2022-09-26T06:27:17.583Z,1001.02
2022-09-26T06:28:17.544Z,1000.98
2022-09-26T06:29:17.538Z,1000.98
2022-09-26T06:30:17.539Z,1000.98
2022-09-26T06:31:17.570Z,1000.94
2022-09-26T06:32:17.535Z,1000.97
2022-09-26T06:33:17.491Z,1000.88
2022-09-26T06:34:17.499Z,1000.95
2022-09-26T06:35:17.482Z,1000.93
2022-09-26T06:36:17.485Z,1000.95
2022-09-26T06:37:17.552Z,1000.95
2022-09-26T06:38:17.439Z,1000.92
2022-09-26T06:39:17.424Z,1000.90
2022-09-26T06:40:17.590Z,1000.89
2022-09-26T06:41:17.417Z,1000.91
2022-09-26T06:42:17.394Z,1000.83
2022-09-26T06:43:17.382Z,1000.83
2022-09-26T06:44:17.377Z,1000.85
2022-09-26T06:45:17.360Z,1000.83
2022-09-26T06:46:17.451Z,1000.76
2022-09-26T06:47:17.542Z,1000.80
2022-09-26T06:48:19.935Z,1000.78
2022-09-26T06:49:18.317Z,1000.82
2022-09-26T06:50:17.335Z,1000.80
2022-09-26T06:51:17.313Z,1000.80
2022-09-26T06:52:17.320Z,1000.83
2022-09-26T06:53:17.385Z,1000.77
2022-09-26T06:54:17.267Z,1000.76
2022-09-26T06:55:17.256Z,1000.78
2022-09-26T06:56:17.252Z,1000.80
2022-09-26T06:57:17.229Z,1000.76
2022-09-26T06:58:17.258Z,1000.79
2022-09-26T06:59:17.211Z,1000.71
2022-09-26T07:00:17.199Z,1000.73
2022-09-26T07:01:17.384Z,1000.69
2022-09-26T07:02:17.378Z,1000.68
2022-09-26T07:03:17.165Z,1000.75
2022-09-26T07:04:17.157Z,1000.76
2022-09-26T07:05:17.145Z,1000.77
2022-09-26T07:06:17.153Z,1000.73
2022-09-26T07:07:17.138Z,1000.75
2022-09-26T07:08:17.115Z,1000.75
2022-09-26T07:09:17.687Z,1000.77
2022-09-26T07:10:17.090Z,1000.71
2022-09-26T07:12:18.070Z,1000.73
2022-09-26T07:13:17.078Z,1000.69
2022-09-26T07:14:17.079Z,1000.69
2022-09-26T07:15:17.050Z,1000.68
2022-09-26T07:16:17.046Z,1000.68
2022-09-26T07:17:17.034Z,1000.69
2022-09-26T07:18:17.010Z,1000.68
2022-09-26T07:19:17.008Z,1000.73
2022-09-26T07:20:17.022Z,1000.72
2022-09-26T07:21:16.972Z,1000.70
2022-09-26T07:22:16.964Z,1000.74
2022-09-26T07:23:16.961Z,1000.66
2022-09-26T07:24:16.941Z,1000.71
2022-09-26T07:25:16.962Z,1000.64
2022-09-26T07:26:16.921Z,1000.66
2022-09-26T07:27:16.910Z,1000.64
2022-09-26T07:28:16.899Z,1000.69
2022-09-26T07:29:16.889Z,1000.64
2022-09-26T07:30:16.893Z,1000.64
2022-09-26T07:31:16.894Z,1000.63
2022-09-26T07:32:16.869Z,1000.61
2022-09-26T07:33:16.847Z,1000.61
2022-09-26T07:34:18.621Z,1000.63
2022-09-26T07:35:16.856Z,1000.61
2022-09-26T07:36:16.815Z,1000.61
2022-09-26T07:37:16.804Z,1000.58
2022-09-26T07:38:16.795Z,1000.59
2022-09-26T07:39:16.908Z,1000.59
2022-09-26T07:40:16.855Z,1000.58
2022-09-26T07:41:16.781Z,1000.54
2022-09-26T07:42:16.755Z,1000.57
2022-09-26T07:43:21.247Z,1000.56
2022-09-26T07:45:27.956Z,1000.62
2022-09-26T07:46:17.776Z,1000.57
2022-09-26T07:47:16.697Z,1000.52
2022-09-26T07:48:16.691Z,1000.57
2022-09-26T07:49:16.679Z,1000.59
2022-09-26T07:50:16.739Z,1000.57
2022-09-26T07:51:16.662Z,1000.60
2022-09-26T07:52:16.650Z,1000.53
2022-09-26T07:53:16.637Z,1000.52
2022-09-26T07:54:16.630Z,1000.57
2022-09-26T07:55:16.631Z,1000.53
2022-09-26T07:56:16.612Z,1000.60
2022-09-26T07:57:16.620Z,1000.59
2022-09-26T07:58:16.589Z,1000.57
2022-09-26T07:59:16.578Z,1000.56
2022-09-26T08:00:16.580Z,1000.61
2022-09-26T08:01:16.614Z,1000.60
2022-09-26T08:02:16.721Z,1000.60
2022-09-26T08:03:16.655Z,1000.59
2022-09-26T08:04:16.527Z,1000.62
2022-09-26T08:05:16.580Z,1000.61
2022-09-26T08:06:16.510Z,1000.55
2022-09-26T08:07:16.507Z,1000.62
2022-09-26T08:08:16.486Z,1000.65
2022-09-26T08:09:16.591Z,1000.59
2022-09-26T08:10:16.488Z,1000.60
2022-09-26T08:11:16.459Z,1000.55
2022-09-26T08:12:16.446Z,1000.62
2022-09-26T08:13:16.454Z,1000.58
2022-09-26T08:14:16.472Z,1000.63
2022-09-26T08:15:16.433Z,1000.54
2022-09-26T08:16:16.531Z,1000.59
2022-09-26T08:17:16.420Z,1000.57
2022-09-26T08:18:16.387Z,1000.54
2022-09-26T08:19:16.376Z,1000.45
2022-09-26T08:20:16.373Z,1000.53
2022-09-26T08:21:16.357Z,1000.52
2022-09-26T08:22:16.345Z,1000.51
2022-09-26T08:23:16.337Z,1000.54
2022-09-26T08:24:16.527Z,1000.46
2022-09-26T08:25:16.328Z,1000.37
2022-09-26T08:26:16.308Z,1000.43
2022-09-26T08:27:16.295Z,1000.50
2022-09-26T08:28:16.313Z,1000.47
2022-09-26T08:29:16.295Z,1000.47
2022-09-26T08:30:16.280Z,1000.52
2022-09-26T08:31:16.310Z,1000.45
2022-09-26T08:32:16.243Z,1000.52
2022-09-26T08:33:16.236Z,1000.50
2022-09-26T08:34:18.382Z,1000.49
2022-09-26T08:35:16.233Z,1000.46
2022-09-26T08:36:16.205Z,1000.50
2022-09-26T08:37:16.196Z,1000.49
2022-09-26T08:38:16.181Z,1000.50
2022-09-26T08:39:16.305Z,1000.47
2022-09-26T08:40:16.221Z,1000.47
2022-09-26T08:41:16.154Z,1000.50
2022-09-26T08:42:16.144Z,1000.52
2022-09-26T08:43:16.137Z,1000.48
2022-09-26T08:44:16.318Z,1000.54
2022-09-26T08:45:16.142Z,1000.47
2022-09-26T08:46:16.135Z,1000.48
2022-09-26T08:47:16.094Z,1000.47
2022-09-26T08:48:16.082Z,1000.29
2022-09-26T08:49:16.086Z,1000.38
2022-09-26T08:50:16.077Z,1000.41
2022-09-26T08:51:16.052Z,1000.38
2022-09-26T08:52:16.040Z,1000.33
2022-09-26T08:53:16.032Z,1000.39
2022-09-26T08:54:16.153Z,1000.38
2022-09-26T08:55:16.023Z,1000.31
2022-09-26T08:56:16.001Z,1000.32
2022-09-26T08:57:15.992Z,1000.30
2022-09-26T08:58:15.982Z,1000.37
2022-09-26T08:59:15.971Z,1000.31
2022-09-26T09:00:15.973Z,1000.29
2022-09-26T09:01:16.097Z,1000.25
2022-09-26T09:02:16.085Z,1000.28
2022-09-26T09:03:16.049Z,1000.15
2022-09-26T09:04:16.180Z,1000.19
2022-09-26T09:05:15.924Z,1000.29
2022-09-26T09:06:15.899Z,1000.15
2022-09-26T09:07:15.887Z,1000.23
2022-09-26T09:08:15.876Z,1000.24
2022-09-26T09:09:15.869Z,1000.12
2022-09-26T09:10:15.870Z,1000.14
2022-09-26T09:11:15.850Z,1000.16
2022-09-26T09:12:18.536Z,1000.21
2022-09-26T09:13:15.827Z,1000.14
2022-09-26T09:14:15.993Z,1000.15
2022-09-26T09:15:25.340Z,1000.11
2022-09-26T09:16:16.910Z,1000.15
2022-09-26T09:17:15.819Z,1000.15
2022-09-26T09:18:15.777Z,1000.19
2022-09-26T09:19:15.796Z,1000.10
2022-09-26T09:20:15.763Z,1000.17
2022-09-26T09:21:15.743Z,1000.11
2022-09-26T09:22:15.737Z,1000.10
2022-09-26T09:23:15.724Z,1000.11
2022-09-26T09:24:15.867Z,1000.06
2022-09-26T09:25:15.714Z,1000.10
2022-09-26T09:28:16.670Z,1000.06
2022-09-26T09:29:18.976Z,1000.10
2022-09-26T09:30:16.918Z,1000.07
2022-09-26T09:31:15.736Z,1000.06
2022-09-26T09:32:15.633Z,1000.02
2022-09-26T09:33:15.650Z,1000.02
2022-09-26T09:34:15.804Z,999.87
2022-09-26T09:35:15.644Z,999.93
2022-09-26T09:36:15.591Z,1000.02
2022-09-26T09:37:15.583Z,999.84
2022-09-26T09:38:15.570Z,1000.04
2022-09-26T09:39:15.561Z,1000.05
2022-09-26T09:40:15.613Z,999.81
2022-09-26T09:41:15.548Z,999.84
2022-09-26T09:42:15.531Z,999.89
2022-09-26T09:43:15.523Z,999.91
2022-09-26T09:44:15.640Z,999.95
2022-09-26T09:45:15.506Z,999.91
2022-09-26T09:46:15.559Z,999.94
2022-09-26T09:47:15.562Z,1000.01
2022-09-26T09:48:15.473Z,1000.03
2022-09-26T09:49:15.535Z,999.98
2022-09-26T09:50:15.449Z,999.95
2022-09-26T09:51:15.445Z,999.90
2022-09-26T09:52:15.430Z,999.97
2022-09-26T09:53:15.422Z,999.92
2022-09-26T09:54:15.532Z,999.89
2022-09-26T09:55:15.401Z,999.92
2022-09-26T09:56:15.388Z,999.90
2022-09-26T09:57:15.381Z,999.86
2022-09-26T09:58:15.373Z,999.83
2022-09-26T09:59:15.371Z,999.80
2022-09-26T10:00:15.351Z,999.78
2022-09-26T10:01:15.340Z,999.84
2022-09-26T10:02:15.349Z,999.85
2022-09-26T10:03:15.411Z,999.80
2022-09-26T10:04:15.507Z,999.74
2022-09-26T10:05:15.322Z,999.77
2022-09-26T10:06:44.349Z,999.81
2022-09-26T10:07:16.281Z,999.73
2022-09-26T10:08:15.301Z,999.69
2022-09-26T10:09:35.559Z,999.78
2022-09-26T10:10:16.255Z,999.79
2022-09-26T10:11:15.244Z,999.56
2022-09-26T10:12:15.232Z,999.52
2022-09-26T10:13:15.233Z,999.52
2022-09-26T10:14:15.348Z,999.53
2022-09-26T10:15:15.203Z,999.57
2022-09-26T10:16:15.478Z,999.68
2022-09-26T10:17:15.183Z,999.71
2022-09-26T10:18:30.045Z,999.68
2022-09-26T10:19:16.174Z,999.57
2022-09-26T10:20:15.194Z,999.65
2022-09-26T10:21:15.165Z,999.63
2022-09-26T10:22:15.139Z,999.67
2022-09-26T10:23:15.125Z,999.54
2022-09-26T10:24:15.229Z,999.49
2022-09-26T10:25:15.104Z,999.51
2022-09-26T10:26:15.095Z,999.49
2022-09-26T10:27:15.095Z,999.41
2022-09-26T10:28:15.073Z,999.32
2022-09-26T10:29:15.079Z,999.34
2022-09-26T10:30:15.127Z,999.36
2022-09-26T10:31:15.082Z,999.32
2022-09-26T10:32:15.051Z,999.28
2022-09-26T10:33:15.025Z,999.30
2022-09-26T10:34:15.184Z,999.29
2022-09-26T10:35:18.829Z,999.26
2022-09-26T10:36:14.994Z,999.25
2022-09-26T10:37:15.006Z,999.19
2022-09-26T10:38:14.974Z,999.22
2022-09-26T10:39:14.978Z,999.28
2022-09-26T10:40:15.153Z,999.31
2022-09-26T10:41:14.946Z,999.24
2022-09-26T10:42:14.932Z,999.20
2022-09-26T10:43:14.960Z,999.22
2022-09-26T10:44:14.981Z,999.24
2022-09-26T10:45:14.902Z,999.21
2022-09-26T10:46:14.985Z,999.17
2022-09-26T10:47:14.886Z,999.15
2022-09-26T10:48:14.958Z,999.18
2022-09-26T10:49:14.860Z,999.17
2022-09-26T10:50:14.848Z,999.26
2022-09-26T10:51:14.838Z,999.23
2022-09-26T10:52:18.623Z,999.29
2022-09-26T10:53:14.848Z,999.20
2022-09-26T10:54:15.023Z,999.18
2022-09-26T10:55:14.800Z,999.15
2022-09-26T10:56:14.781Z,999.18
2022-09-26T10:57:14.782Z,999.14
2022-09-26T10:58:15.418Z,999.25
2022-09-26T10:59:14.753Z,999.16
2022-09-26T11:00:14.742Z,999.17
2022-09-26T11:01:14.776Z,999.15
2022-09-26T11:02:14.788Z,999.13
2022-09-26T11:03:14.765Z,999.09
2022-09-26T11:04:14.967Z,999.09
2022-09-26T11:05:14.686Z,999.10
2022-09-26T11:06:14.708Z,999.06
2022-09-26T11:07:14.663Z,999.02
2022-09-26T11:08:14.702Z,999.05
2022-09-26T11:09:14.677Z,999.04
2022-09-26T11:10:14.628Z,999.05
2022-09-26T11:11:14.638Z,999.00
2022-09-26T11:12:14.612Z,998.98
2022-09-26T11:13:14.616Z,999.08
2022-09-26T11:14:14.650Z,999.04
2022-09-26T11:15:14.576Z,998.98
2022-09-26T11:16:14.777Z,998.97
2022-09-26T11:17:14.555Z,998.96
2022-09-26T11:18:14.562Z,998.96
2022-09-26T11:19:14.596Z,998.90
2022-09-26T11:20:14.523Z,998.92
2022-09-26T11:21:28.215Z,998.88
2022-09-26T11:22:15.499Z,998.89
2022-09-26T11:23:14.503Z,998.92
2022-09-26T11:24:14.545Z,998.86
2022-09-26T11:25:14.489Z,998.84
2022-09-26T11:26:14.460Z,998.83
2022-09-26T11:27:14.453Z,998.83
2022-09-26T11:28:14.451Z,998.81
2022-09-26T11:29:14.685Z,998.86
2022-09-26T11:30:14.420Z,998.82
2022-09-26T11:31:14.527Z,998.77
2022-09-26T11:32:14.414Z,998.78
2022-09-26T11:33:14.401Z,998.76
2022-09-26T11:34:14.496Z,998.78
2022-09-26T11:35:14.391Z,998.70
2022-09-26T11:36:14.354Z,998.75
2022-09-26T11:37:14.346Z,998.74
2022-09-26T11:38:14.350Z,998.70
2022-09-26T11:39:14.454Z,998.68
2022-09-26T11:40:14.408Z,998.62
2022-09-26T11:41:14.329Z,998.67
2022-09-26T11:42:14.318Z,998.63
2022-09-26T11:43:14.307Z,998.71
2022-09-26T11:44:14.446Z,998.71
2022-09-26T11:45:14.263Z,998.67
2022-09-26T11:46:14.316Z,998.65
2022-09-26T11:47:14.244Z,998.62
2022-09-26T11:48:14.243Z,998.63
2022-09-26T11:49:14.225Z,998.64
2022-09-26T11:50:14.210Z,998.63
2022-09-26T11:51:14.210Z,998.66
2022-09-26T11:52:14.189Z,998.61
2022-09-26T11:53:14.192Z,998.58
2022-09-26T11:54:14.290Z,998.61
2022-09-26T11:55:14.158Z,998.60
2022-09-26T11:56:14.150Z,998.57
2022-09-26T11:57:14.158Z,998.59
2022-09-26T11:58:14.136Z,998.53
2022-09-26T11:59:14.116Z,998.53
2022-09-26T12:00:14.104Z,998.50
2022-09-26T12:01:14.096Z,998.46
2022-09-26T12:02:14.160Z,998.50
2022-09-26T12:03:14.238Z,998.44
2022-09-26T12:04:14.219Z,998.42
2022-09-26T12:05:14.071Z,998.43
2022-09-26T12:06:14.042Z,998.37
2022-09-26T12:07:14.031Z,998.38
2022-09-26T12:08:14.034Z,998.39
2022-09-26T12:09:14.010Z,998.37
2022-09-26T12:10:13.999Z,998.35
2022-09-26T12:11:13.990Z,998.34
2022-09-26T12:12:14.002Z,998.33
2022-09-26T12:13:14.044Z,998.28
2022-09-26T12:14:14.091Z,998.29